sensor_id;sensor_type;location;lat;lon;timestamp;temperature;humidity
14555;DHT22;7364;50.870;4.722;2023-12-07T00:01:29;4.80;99.90
14555;DHT22;7364;50.870;4.722;2023-12-07T00:03:56;4.90;99.90
14555;DHT22;7364;50.870;4.722;2023-12-07T00:06:23;5.00;99.90
14555;DHT22;7364;50.870;4.722;2023-12-07T00:08:52;4.90;99.90
14555;DHT22;7364;50.870;4.722;2023-12-07T00:11:22;5.00;99.90
14555;DHT22;7364;50.870;4.722;2023-12-07T00:13:49;4.90;99.90
14555;DHT22;7364;50.870;4.722;2023-12-07T00:16:16;4.90;99.90
14555;DHT22;7364;50.870;4.722;2023-12-07T00:18:43;4.60;99.90
14555;DHT22;7364;50.870;4.722;2023-12-07T00:21:11;4.60;99.90
14555;DHT22;7364;50.870;4.722;2023-12-07T00:23:38;4.40;99.90
14555;DHT22;7364;50.870;4.722;2023-12-07T00:26:06;4.40;99.90
14555;DHT22;7364;50.870;4.722;2023-12-07T00:28:33;4.30;99.90
14555;DHT22;7364;50.870;4.722;2023-12-07T00:31:01;4.20;99.90
14555;DHT22;7364;50.870;4.722;2023-12-07T00:33:28;4.20;99.90
14555;DHT22;7364;50.870;4.722;2023-12-07T00:35:55;4.30;99.90
14555;DHT22;7364;50.870;4.722;2023-12-07T00:38:23;4.20;99.90
14555;DHT22;7364;50.870;4.722;2023-12-07T00:40:50;4.40;99.90
14555;DHT22;7364;50.870;4.722;2023-12-07T00:43:18;4.50;99.90
14555;DHT22;7364;50.870;4.722;2023-12-07T00:45:45;4.60;99.90
14555;DHT22;7364;50.870;4.722;2023-12-07T00:48:13;4.90;99.90
14555;DHT22;7364;50.870;4.722;2023-12-07T00:50:40;4.90;99.90
14555;DHT22;7364;50.870;4.722;2023-12-07T00:53:07;4.90;99.90
14555;DHT22;7364;50.870;4.722;2023-12-07T00:55:34;4.90;99.90
14555;DHT22;7364;50.870;4.722;2023-12-07T00:58:01;4.90;99.90
14555;DHT22;7364;50.870;4.722;2023-12-07T01:00:30;4.90;99.90
14555;DHT22;7364;50.870;4.722;2023-12-07T01:02:57;5.00;99.90
14555;DHT22;7364;50.870;4.722;2023-12-07T01:05:24;5.10;99.90
14555;DHT22;7364;50.870;4.722;2023-12-07T01:07:51;5.20;99.90
14555;DHT22;7364;50.870;4.722;2023-12-07T01:10:18;5.40;99.90
14555;DHT22;7364;50.870;4.722;2023-12-07T01:12:45;5.10;99.90
14555;DHT22;7364;50.870;4.722;2023-12-07T01:15:12;4.80;99.90
14555;DHT22;7364;50.870;4.722;2023-12-07T01:17:41;4.50;99.90
14555;DHT22;7364;50.870;4.722;2023-12-07T01:20:09;4.30;99.90
14555;DHT22;7364;50.870;4.722;2023-12-07T01:22:39;4.30;99.90
14555;DHT22;7364;50.870;4.722;2023-12-07T01:25:07;4.30;99.90
14555;DHT22;7364;50.870;4.722;2023-12-07T01:27:35;4.30;99.90
14555;DHT22;7364;50.870;4.722;2023-12-07T01:30:03;4.30;99.90
14555;DHT22;7364;50.870;4.722;2023-12-07T01:32:30;4.40;99.90
14555;DHT22;7364;50.870;4.722;2023-12-07T01:34:59;4.30;99.90
14555;DHT22;7364;50.870;4.722;2023-12-07T01:37:26;4.40;99.90
14555;DHT22;7364;50.870;4.722;2023-12-07T01:39:55;4.50;99.90
14555;DHT22;7364;50.870;4.722;2023-12-07T01:42:22;4.80;99.90
14555;DHT22;7364;50.870;4.722;2023-12-07T01:44:49;4.80;99.90
14555;DHT22;7364;50.870;4.722;2023-12-07T01:47:16;4.80;99.90
14555;DHT22;7364;50.870;4.722;2023-12-07T01:49:43;4.80;99.90
14555;DHT22;7364;50.870;4.722;2023-12-07T01:52:12;5.00;99.90
14555;DHT22;7364;50.870;4.722;2023-12-07T01:54:40;5.00;99.90
14555;DHT22;7364;50.870;4.722;2023-12-07T01:57:07;5.00;99.90
14555;DHT22;7364;50.870;4.722;2023-12-07T01:59:34;4.90;99.90
14555;DHT22;7364;50.870;4.722;2023-12-07T02:02:03;4.90;99.90
14555;DHT22;7364;50.870;4.722;2023-12-07T02:04:30;5.00;99.90
14555;DHT22;7364;50.870;4.722;2023-12-07T02:06:58;5.00;99.90
14555;DHT22;7364;50.870;4.722;2023-12-07T02:09:28;4.70;99.90
14555;DHT22;7364;50.870;4.722;2023-12-07T02:11:55;4.60;99.90
14555;DHT22;7364;50.870;4.722;2023-12-07T02:14:23;4.50;99.90
14555;DHT22;7364;50.870;4.722;2023-12-07T02:16:54;4.50;99.90
14555;DHT22;7364;50.870;4.722;2023-12-07T02:19:41;4.50;99.90
14555;DHT22;7364;50.870;4.722;2023-12-07T02:22:18;4.50;99.90
14555;DHT22;7364;50.870;4.722;2023-12-07T02:25:02;4.50;99.90
14555;DHT22;7364;50.870;4.722;2023-12-07T02:27:37;4.40;99.90
14555;DHT22;7364;50.870;4.722;2023-12-07T02:30:06;4.50;99.90
14555;DHT22;7364;50.870;4.722;2023-12-07T02:32:34;4.40;99.90
14555;DHT22;7364;50.870;4.722;2023-12-07T02:35:01;4.40;99.90
14555;DHT22;7364;50.870;4.722;2023-12-07T02:37:33;4.40;99.90
14555;DHT22;7364;50.870;4.722;2023-12-07T02:40:04;4.40;99.90
14555;DHT22;7364;50.870;4.722;2023-12-07T02:42:37;4.40;99.90
14555;DHT22;7364;50.870;4.722;2023-12-07T02:45:07;4.40;99.90
14555;DHT22;7364;50.870;4.722;2023-12-07T02:47:35;4.50;99.90
14555;DHT22;7364;50.870;4.722;2023-12-07T02:50:03;4.50;99.90
14555;DHT22;7364;50.870;4.722;2023-12-07T02:52:31;4.50;99.90
14555;DHT22;7364;50.870;4.722;2023-12-07T02:54:58;4.40;99.90
14555;DHT22;7364;50.870;4.722;2023-12-07T02:57:25;4.40;99.90
14555;DHT22;7364;50.870;4.722;2023-12-07T02:59:54;4.30;99.90
14555;DHT22;7364;50.870;4.722;2023-12-07T03:02:21;4.30;99.90
14555;DHT22;7364;50.870;4.722;2023-12-07T03:04:48;4.30;99.90
14555;DHT22;7364;50.870;4.722;2023-12-07T03:07:15;4.40;99.90
14555;DHT22;7364;50.870;4.722;2023-12-07T03:09:42;4.40;99.90
14555;DHT22;7364;50.870;4.722;2023-12-07T03:12:10;4.40;99.90
14555;DHT22;7364;50.870;4.722;2023-12-07T03:14:37;4.50;99.90
14555;DHT22;7364;50.870;4.722;2023-12-07T03:17:06;4.50;99.90
14555;DHT22;7364;50.870;4.722;2023-12-07T03:19:33;4.40;99.90
14555;DHT22;7364;50.870;4.722;2023-12-07T03:22:04;4.50;99.90
14555;DHT22;7364;50.870;4.722;2023-12-07T03:24:32;4.60;99.90
14555;DHT22;7364;50.870;4.722;2023-12-07T03:26:59;4.60;99.90
14555;DHT22;7364;50.870;4.722;2023-12-07T03:29:26;4.60;99.90
14555;DHT22;7364;50.870;4.722;2023-12-07T03:31:54;4.50;99.90
14555;DHT22;7364;50.870;4.722;2023-12-07T03:34:22;4.40;99.90
14555;DHT22;7364;50.870;4.722;2023-12-07T03:36:50;4.40;99.90
14555;DHT22;7364;50.870;4.722;2023-12-07T03:39:18;4.40;99.90
14555;DHT22;7364;50.870;4.722;2023-12-07T03:41:47;4.30;99.90
14555;DHT22;7364;50.870;4.722;2023-12-07T03:44:14;4.30;99.90
14555;DHT22;7364;50.870;4.722;2023-12-07T03:46:42;4.50;99.90
14555;DHT22;7364;50.870;4.722;2023-12-07T03:49:09;4.60;99.90
14555;DHT22;7364;50.870;4.722;2023-12-07T03:51:38;4.50;99.90
14555;DHT22;7364;50.870;4.722;2023-12-07T03:54:05;4.60;99.90
14555;DHT22;7364;50.870;4.722;2023-12-07T03:56:33;4.60;99.90
14555;DHT22;7364;50.870;4.722;2023-12-07T03:59:01;4.60;99.90
14555;DHT22;7364;50.870;4.722;2023-12-07T04:01:28;4.70;99.90
14555;DHT22;7364;50.870;4.722;2023-12-07T04:03:57;4.50;99.90
14555;DHT22;7364;50.870;4.722;2023-12-07T04:06:25;4.60;99.90
14555;DHT22;7364;50.870;4.722;2023-12-07T04:08:53;4.70;99.90
14555;DHT22;7364;50.870;4.722;2023-12-07T04:11:21;4.90;99.90
14555;DHT22;7364;50.870;4.722;2023-12-07T04:13:48;5.00;99.90
14555;DHT22;7364;50.870;4.722;2023-12-07T04:16:15;4.90;99.90
14555;DHT22;7364;50.870;4.722;2023-12-07T04:18:43;4.80;99.90
14555;DHT22;7364;50.870;4.722;2023-12-07T04:21:10;4.80;99.90
14555;DHT22;7364;50.870;4.722;2023-12-07T04:23:37;4.70;99.90
14555;DHT22;7364;50.870;4.722;2023-12-07T04:26:06;4.60;99.90
14555;DHT22;7364;50.870;4.722;2023-12-07T04:28:33;4.50;99.90
14555;DHT22;7364;50.870;4.722;2023-12-07T04:31:00;4.40;99.90
14555;DHT22;7364;50.870;4.722;2023-12-07T04:33:27;4.50;99.90
14555;DHT22;7364;50.870;4.722;2023-12-07T04:35:55;4.50;99.90
14555;DHT22;7364;50.870;4.722;2023-12-07T04:38:22;4.50;99.90
14555;DHT22;7364;50.870;4.722;2023-12-07T04:40:49;4.40;99.90
14555;DHT22;7364;50.870;4.722;2023-12-07T04:43:18;4.40;99.90
14555;DHT22;7364;50.870;4.722;2023-12-07T04:45:45;4.40;99.90
14555;DHT22;7364;50.870;4.722;2023-12-07T04:48:13;4.40;99.90
14555;DHT22;7364;50.870;4.722;2023-12-07T04:50:40;4.40;99.90
14555;DHT22;7364;50.870;4.722;2023-12-07T04:53:07;4.30;99.90
14555;DHT22;7364;50.870;4.722;2023-12-07T04:55:34;4.30;99.90
14555;DHT22;7364;50.870;4.722;2023-12-07T04:58:01;4.30;99.90
14555;DHT22;7364;50.870;4.722;2023-12-07T05:00:30;4.30;99.90
14555;DHT22;7364;50.870;4.722;2023-12-07T05:02:57;4.30;99.90
14555;DHT22;7364;50.870;4.722;2023-12-07T05:05:24;4.40;99.90
14555;DHT22;7364;50.870;4.722;2023-12-07T05:07:51;4.40;99.90
14555;DHT22;7364;50.870;4.722;2023-12-07T05:10:19;4.40;99.90
14555;DHT22;7364;50.870;4.722;2023-12-07T05:12:46;4.40;99.90
14555;DHT22;7364;50.870;4.722;2023-12-07T05:15:13;4.40;99.90
14555;DHT22;7364;50.870;4.722;2023-12-07T05:17:42;4.40;99.90
14555;DHT22;7364;50.870;4.722;2023-12-07T05:20:09;4.40;99.90
14555;DHT22;7364;50.870;4.722;2023-12-07T05:22:38;4.40;99.90
14555;DHT22;7364;50.870;4.722;2023-12-07T05:25:06;4.40;99.90
14555;DHT22;7364;50.870;4.722;2023-12-07T05:27:34;4.30;99.90
14555;DHT22;7364;50.870;4.722;2023-12-07T05:30:01;4.40;99.90
14555;DHT22;7364;50.870;4.722;2023-12-07T05:32:28;4.40;99.90
14555;DHT22;7364;50.870;4.722;2023-12-07T05:34:57;4.40;99.90
14555;DHT22;7364;50.870;4.722;2023-12-07T05:37:24;4.40;99.90
14555;DHT22;7364;50.870;4.722;2023-12-07T05:39:52;4.30;99.90
14555;DHT22;7364;50.870;4.722;2023-12-07T05:42:19;4.30;99.90
14555;DHT22;7364;50.870;4.722;2023-12-07T05:44:46;4.30;99.90
14555;DHT22;7364;50.870;4.722;2023-12-07T05:47:13;4.40;99.90
14555;DHT22;7364;50.870;4.722;2023-12-07T05:49:40;4.40;99.90
14555;DHT22;7364;50.870;4.722;2023-12-07T05:52:09;4.40;99.90
14555;DHT22;7364;50.870;4.722;2023-12-07T05:54:36;4.30;99.90
14555;DHT22;7364;50.870;4.722;2023-12-07T05:57:03;4.30;99.90
14555;DHT22;7364;50.870;4.722;2023-12-07T05:59:31;4.20;99.90
14555;DHT22;7364;50.870;4.722;2023-12-07T06:01:58;4.30;99.90
14555;DHT22;7364;50.870;4.722;2023-12-07T06:04:25;4.40;99.90
14555;DHT22;7364;50.870;4.722;2023-12-07T06:06:53;4.40;99.90
14555;DHT22;7364;50.870;4.722;2023-12-07T06:09:21;4.50;99.90
14555;DHT22;7364;50.870;4.722;2023-12-07T06:11:49;4.60;99.90
14555;DHT22;7364;50.870;4.722;2023-12-07T06:14:16;4.70;99.90
14555;DHT22;7364;50.870;4.722;2023-12-07T06:16:43;4.70;99.90
14555;DHT22;7364;50.870;4.722;2023-12-07T06:19:10;4.80;99.90
14555;DHT22;7364;50.870;4.722;2023-12-07T06:21:38;4.90;99.90
14555;DHT22;7364;50.870;4.722;2023-12-07T06:24:06;4.80;99.90
14555;DHT22;7364;50.870;4.722;2023-12-07T06:26:34;4.80;99.90
14555;DHT22;7364;50.870;4.722;2023-12-07T06:29:01;4.90;99.90
14555;DHT22;7364;50.870;4.722;2023-12-07T06:31:28;5.00;99.90
14555;DHT22;7364;50.870;4.722;2023-12-07T06:33:57;5.10;99.90
14555;DHT22;7364;50.870;4.722;2023-12-07T06:36:26;5.30;99.90
14555;DHT22;7364;50.870;4.722;2023-12-07T06:38:53;5.40;99.90
14555;DHT22;7364;50.870;4.722;2023-12-07T06:41:21;5.40;99.90
14555;DHT22;7364;50.870;4.722;2023-12-07T06:43:50;5.30;99.90
14555;DHT22;7364;50.870;4.722;2023-12-07T06:46:17;5.20;99.90
14555;DHT22;7364;50.870;4.722;2023-12-07T06:48:44;5.10;99.90
14555;DHT22;7364;50.870;4.722;2023-12-07T06:51:12;5.30;99.90
14555;DHT22;7364;50.870;4.722;2023-12-07T06:53:40;5.10;99.90
14555;DHT22;7364;50.870;4.722;2023-12-07T06:56:08;5.10;99.90
14555;DHT22;7364;50.870;4.722;2023-12-07T06:58:35;5.20;99.90
14555;DHT22;7364;50.870;4.722;2023-12-07T07:01:04;5.10;99.90
14555;DHT22;7364;50.870;4.722;2023-12-07T07:03:31;5.20;99.90
14555;DHT22;7364;50.870;4.722;2023-12-07T07:05:58;5.30;99.90
14555;DHT22;7364;50.870;4.722;2023-12-07T07:08:26;5.30;99.90
14555;DHT22;7364;50.870;4.722;2023-12-07T07:10:53;5.30;99.90
14555;DHT22;7364;50.870;4.722;2023-12-07T07:13:23;5.40;99.90
14555;DHT22;7364;50.870;4.722;2023-12-07T07:15:50;5.30;99.90
14555;DHT22;7364;50.870;4.722;2023-12-07T07:18:19;5.30;99.90
14555;DHT22;7364;50.870;4.722;2023-12-07T07:20:50;5.30;99.90
14555;DHT22;7364;50.870;4.722;2023-12-07T07:23:17;5.40;99.90
14555;DHT22;7364;50.870;4.722;2023-12-07T07:25:44;5.40;99.90
14555;DHT22;7364;50.870;4.722;2023-12-07T07:28:11;5.40;99.90
14555;DHT22;7364;50.870;4.722;2023-12-07T07:30:38;5.40;99.90
14555;DHT22;7364;50.870;4.722;2023-12-07T07:33:06;5.50;99.90
14555;DHT22;7364;50.870;4.722;2023-12-07T07:35:34;5.40;99.90
14555;DHT22;7364;50.870;4.722;2023-12-07T07:38:01;5.40;99.90
14555;DHT22;7364;50.870;4.722;2023-12-07T07:40:29;5.40;99.90
14555;DHT22;7364;50.870;4.722;2023-12-07T07:42:56;5.30;99.90
14555;DHT22;7364;50.870;4.722;2023-12-07T07:45:23;5.10;99.90
14555;DHT22;7364;50.870;4.722;2023-12-07T07:47:50;5.00;99.90
14555;DHT22;7364;50.870;4.722;2023-12-07T07:50:18;4.90;99.90
14555;DHT22;7364;50.870;4.722;2023-12-07T07:52:46;4.80;99.90
14555;DHT22;7364;50.870;4.722;2023-12-07T07:55:13;4.80;99.90
14555;DHT22;7364;50.870;4.722;2023-12-07T07:57:41;4.60;99.90
14555;DHT22;7364;50.870;4.722;2023-12-07T08:00:09;4.60;99.90
14555;DHT22;7364;50.870;4.722;2023-12-07T08:02:38;4.70;99.90
14555;DHT22;7364;50.870;4.722;2023-12-07T08:05:06;4.70;99.90
14555;DHT22;7364;50.870;4.722;2023-12-07T08:07:33;4.70;99.90
14555;DHT22;7364;50.870;4.722;2023-12-07T08:10:02;4.60;99.90
14555;DHT22;7364;50.870;4.722;2023-12-07T08:12:30;4.70;99.90
14555;DHT22;7364;50.870;4.722;2023-12-07T08:14:57;4.80;99.90
14555;DHT22;7364;50.870;4.722;2023-12-07T08:17:25;5.00;99.90
14555;DHT22;7364;50.870;4.722;2023-12-07T08:19:52;5.10;99.90
14555;DHT22;7364;50.870;4.722;2023-12-07T08:22:19;5.20;99.90
14555;DHT22;7364;50.870;4.722;2023-12-07T08:24:47;5.30;99.90
14555;DHT22;7364;50.870;4.722;2023-12-07T08:27:15;5.30;99.90
14555;DHT22;7364;50.870;4.722;2023-12-07T08:29:42;5.50;99.90
14555;DHT22;7364;50.870;4.722;2023-12-07T08:32:09;5.60;99.90
14555;DHT22;7364;50.870;4.722;2023-12-07T08:34:37;5.60;99.90
14555;DHT22;7364;50.870;4.722;2023-12-07T08:37:04;5.60;99.90
14555;DHT22;7364;50.870;4.722;2023-12-07T08:39:31;5.70;99.90
14555;DHT22;7364;50.870;4.722;2023-12-07T08:41:58;5.70;99.90
14555;DHT22;7364;50.870;4.722;2023-12-07T08:44:28;5.80;99.90
14555;DHT22;7364;50.870;4.722;2023-12-07T08:46:55;6.00;99.90
14555;DHT22;7364;50.870;4.722;2023-12-07T08:49:22;6.00;99.90
14555;DHT22;7364;50.870;4.722;2023-12-07T08:51:49;6.10;99.90
14555;DHT22;7364;50.870;4.722;2023-12-07T08:54:16;6.40;99.90
14555;DHT22;7364;50.870;4.722;2023-12-07T08:56:44;6.50;99.90
14555;DHT22;7364;50.870;4.722;2023-12-07T08:59:11;6.50;99.90
14555;DHT22;7364;50.870;4.722;2023-12-07T09:01:40;6.30;99.90
14555;DHT22;7364;50.870;4.722;2023-12-07T09:04:07;6.30;99.90
14555;DHT22;7364;50.870;4.722;2023-12-07T09:06:35;6.50;99.90
14555;DHT22;7364;50.870;4.722;2023-12-07T09:09:03;6.80;99.90
14555;DHT22;7364;50.870;4.722;2023-12-07T09:11:31;7.00;99.90
14555;DHT22;7364;50.870;4.722;2023-12-07T09:13:58;7.30;99.90
14555;DHT22;7364;50.870;4.722;2023-12-07T09:16:26;7.60;99.90
14555;DHT22;7364;50.870;4.722;2023-12-07T09:18:55;7.60;99.90
14555;DHT22;7364;50.870;4.722;2023-12-07T09:21:22;7.50;99.90
14555;DHT22;7364;50.870;4.722;2023-12-07T09:23:49;7.40;99.90
14555;DHT22;7364;50.870;4.722;2023-12-07T09:26:16;6.70;99.90
14555;DHT22;7364;50.870;4.722;2023-12-07T09:28:43;6.10;99.90
14555;DHT22;7364;50.870;4.722;2023-12-07T09:31:10;6.10;99.90
14555;DHT22;7364;50.870;4.722;2023-12-07T09:33:38;6.10;99.90
14555;DHT22;7364;50.870;4.722;2023-12-07T09:36:08;6.00;99.90
14555;DHT22;7364;50.870;4.722;2023-12-07T09:38:37;6.20;99.90
14555;DHT22;7364;50.870;4.722;2023-12-07T09:41:04;6.40;99.90
14555;DHT22;7364;50.870;4.722;2023-12-07T09:43:32;6.70;99.90
14555;DHT22;7364;50.870;4.722;2023-12-07T09:45:59;6.80;99.90
14555;DHT22;7364;50.870;4.722;2023-12-07T09:48:27;7.00;99.90
14555;DHT22;7364;50.870;4.722;2023-12-07T09:50:56;7.10;99.90
14555;DHT22;7364;50.870;4.722;2023-12-07T09:53:25;7.30;99.90
14555;DHT22;7364;50.870;4.722;2023-12-07T09:55:52;7.30;99.90
14555;DHT22;7364;50.870;4.722;2023-12-07T09:58:19;7.30;99.90
14555;DHT22;7364;50.870;4.722;2023-12-07T10:00:47;7.30;99.90
14555;DHT22;7364;50.870;4.722;2023-12-07T10:03:20;7.30;99.90
14555;DHT22;7364;50.870;4.722;2023-12-07T10:05:54;7.30;99.90
14555;DHT22;7364;50.870;4.722;2023-12-07T10:08:30;7.50;99.90
14555;DHT22;7364;50.870;4.722;2023-12-07T10:11:05;7.50;99.90
14555;DHT22;7364;50.870;4.722;2023-12-07T10:13:34;7.90;99.90
14555;DHT22;7364;50.870;4.722;2023-12-07T10:16:07;8.00;99.90
14555;DHT22;7364;50.870;4.722;2023-12-07T10:18:35;8.40;99.90
14555;DHT22;7364;50.870;4.722;2023-12-07T10:21:03;8.50;99.90
14555;DHT22;7364;50.870;4.722;2023-12-07T10:23:31;8.80;99.90
14555;DHT22;7364;50.870;4.722;2023-12-07T10:25:59;8.80;99.90
14555;DHT22;7364;50.870;4.722;2023-12-07T10:28:26;9.10;99.90
14555;DHT22;7364;50.870;4.722;2023-12-07T10:30:54;9.00;99.90
14555;DHT22;7364;50.870;4.722;2023-12-07T10:33:21;9.30;99.90
14555;DHT22;7364;50.870;4.722;2023-12-07T10:35:48;9.40;99.90
14555;DHT22;7364;50.870;4.722;2023-12-07T10:38:16;9.30;99.90
14555;DHT22;7364;50.870;4.722;2023-12-07T10:40:46;9.20;99.90
14555;DHT22;7364;50.870;4.722;2023-12-07T10:43:16;9.30;99.90
14555;DHT22;7364;50.870;4.722;2023-12-07T10:45:47;9.20;99.90
14555;DHT22;7364;50.870;4.722;2023-12-07T10:48:15;9.40;99.90
14555;DHT22;7364;50.870;4.722;2023-12-07T10:50:47;9.40;99.90
14555;DHT22;7364;50.870;4.722;2023-12-07T10:53:22;9.30;99.90
14555;DHT22;7364;50.870;4.722;2023-12-07T10:55:56;9.60;99.90
14555;DHT22;7364;50.870;4.722;2023-12-07T10:58:26;9.30;99.90
14555;DHT22;7364;50.870;4.722;2023-12-07T11:00:54;9.20;99.90
14555;DHT22;7364;50.870;4.722;2023-12-07T11:03:21;9.60;99.90
14555;DHT22;7364;50.870;4.722;2023-12-07T11:05:49;9.50;99.90
14555;DHT22;7364;50.870;4.722;2023-12-07T11:08:23;9.60;99.90
14555;DHT22;7364;50.870;4.722;2023-12-07T11:11:00;9.80;99.90
14555;DHT22;7364;50.870;4.722;2023-12-07T11:13:34;9.20;99.90
14555;DHT22;7364;50.870;4.722;2023-12-07T11:16:03;9.20;99.90
14555;DHT22;7364;50.870;4.722;2023-12-07T11:18:31;9.00;99.90
14555;DHT22;7364;50.870;4.722;2023-12-07T11:20:58;8.90;99.90
14555;DHT22;7364;50.870;4.722;2023-12-07T11:23:27;9.10;99.90
14555;DHT22;7364;50.870;4.722;2023-12-07T11:25:56;9.10;99.90
14555;DHT22;7364;50.870;4.722;2023-12-07T11:28:35;8.90;99.90
14555;DHT22;7364;50.870;4.722;2023-12-07T11:31:03;9.00;99.90
14555;DHT22;7364;50.870;4.722;2023-12-07T11:33:30;9.30;99.90
14555;DHT22;7364;50.870;4.722;2023-12-07T11:36:05;9.20;99.90
14555;DHT22;7364;50.870;4.722;2023-12-07T11:38:33;9.60;99.90
14555;DHT22;7364;50.870;4.722;2023-12-07T11:41:01;9.70;99.90
14555;DHT22;7364;50.870;4.722;2023-12-07T11:43:41;9.90;99.90
14555;DHT22;7364;50.870;4.722;2023-12-07T11:46:12;9.70;99.90
14555;DHT22;7364;50.870;4.722;2023-12-07T11:48:46;9.50;99.90
14555;DHT22;7364;50.870;4.722;2023-12-07T11:51:16;9.70;99.90
14555;DHT22;7364;50.870;4.722;2023-12-07T11:53:43;9.80;99.90
14555;DHT22;7364;50.870;4.722;2023-12-07T11:56:12;10.00;99.90
14555;DHT22;7364;50.870;4.722;2023-12-07T11:58:39;9.90;99.90
14555;DHT22;7364;50.870;4.722;2023-12-07T12:01:06;9.30;99.90
14555;DHT22;7364;50.870;4.722;2023-12-07T12:03:34;8.90;99.90
14555;DHT22;7364;50.870;4.722;2023-12-07T12:06:04;9.10;99.90
14555;DHT22;7364;50.870;4.722;2023-12-07T12:08:32;9.20;99.90
14555;DHT22;7364;50.870;4.722;2023-12-07T12:10:59;9.10;99.90
14555;DHT22;7364;50.870;4.722;2023-12-07T12:13:29;9.20;99.90
14555;DHT22;7364;50.870;4.722;2023-12-07T12:15:56;9.30;99.90
14555;DHT22;7364;50.870;4.722;2023-12-07T12:18:23;9.50;99.90
14555;DHT22;7364;50.870;4.722;2023-12-07T12:20:52;9.60;99.90
14555;DHT22;7364;50.870;4.722;2023-12-07T12:23:20;9.60;99.90
14555;DHT22;7364;50.870;4.722;2023-12-07T12:25:48;9.70;99.90
14555;DHT22;7364;50.870;4.722;2023-12-07T12:28:17;9.70;99.90
14555;DHT22;7364;50.870;4.722;2023-12-07T12:30:46;9.40;99.90
14555;DHT22;7364;50.870;4.722;2023-12-07T12:33:14;9.40;99.90
14555;DHT22;7364;50.870;4.722;2023-12-07T12:35:41;9.30;99.90
14555;DHT22;7364;50.870;4.722;2023-12-07T12:38:12;9.50;99.90
14555;DHT22;7364;50.870;4.722;2023-12-07T12:40:39;9.60;99.90
14555;DHT22;7364;50.870;4.722;2023-12-07T12:43:08;9.70;99.90
14555;DHT22;7364;50.870;4.722;2023-12-07T12:45:36;9.80;99.90
14555;DHT22;7364;50.870;4.722;2023-12-07T12:48:05;9.80;99.90
14555;DHT22;7364;50.870;4.722;2023-12-07T12:50:35;9.80;99.90
14555;DHT22;7364;50.870;4.722;2023-12-07T12:53:03;9.70;99.90
14555;DHT22;7364;50.870;4.722;2023-12-07T12:55:33;9.70;99.90
14555;DHT22;7364;50.870;4.722;2023-12-07T12:58:01;9.10;99.90
14555;DHT22;7364;50.870;4.722;2023-12-07T13:00:30;9.10;99.90
14555;DHT22;7364;50.870;4.722;2023-12-07T13:02:58;9.00;99.90
14555;DHT22;7364;50.870;4.722;2023-12-07T13:05:27;9.10;99.90
14555;DHT22;7364;50.870;4.722;2023-12-07T13:07:54;8.80;99.90
14555;DHT22;7364;50.870;4.722;2023-12-07T13:10:22;8.80;99.90
14555;DHT22;7364;50.870;4.722;2023-12-07T13:12:49;8.80;99.90
14555;DHT22;7364;50.870;4.722;2023-12-07T13:15:17;9.00;99.90
14555;DHT22;7364;50.870;4.722;2023-12-07T13:17:44;9.10;99.90
14555;DHT22;7364;50.870;4.722;2023-12-07T13:20:11;9.20;99.90
14555;DHT22;7364;50.870;4.722;2023-12-07T13:22:41;9.30;99.90
14555;DHT22;7364;50.870;4.722;2023-12-07T13:25:09;9.20;99.90
14555;DHT22;7364;50.870;4.722;2023-12-07T13:27:37;9.20;99.90
14555;DHT22;7364;50.870;4.722;2023-12-07T13:30:06;9.10;99.90
14555;DHT22;7364;50.870;4.722;2023-12-07T13:32:35;9.10;99.90
14555;DHT22;7364;50.870;4.722;2023-12-07T13:35:04;9.20;99.90
14555;DHT22;7364;50.870;4.722;2023-12-07T13:37:31;9.00;99.90
14555;DHT22;7364;50.870;4.722;2023-12-07T13:40:01;8.90;99.90
14555;DHT22;7364;50.870;4.722;2023-12-07T13:42:30;9.10;99.90
14555;DHT22;7364;50.870;4.722;2023-12-07T13:44:59;9.20;99.90
14555;DHT22;7364;50.870;4.722;2023-12-07T13:47:27;9.00;99.90
14555;DHT22;7364;50.870;4.722;2023-12-07T13:49:57;9.00;99.90
14555;DHT22;7364;50.870;4.722;2023-12-07T13:52:25;8.90;99.90
14555;DHT22;7364;50.870;4.722;2023-12-07T13:54:52;9.00;99.90
14555;DHT22;7364;50.870;4.722;2023-12-07T13:57:22;8.90;99.90
14555;DHT22;7364;50.870;4.722;2023-12-07T13:59:50;8.90;99.90
14555;DHT22;7364;50.870;4.722;2023-12-07T14:02:17;8.90;99.90
14555;DHT22;7364;50.870;4.722;2023-12-07T14:04:45;8.70;99.90
14555;DHT22;7364;50.870;4.722;2023-12-07T14:07:16;8.80;99.90
14555;DHT22;7364;50.870;4.722;2023-12-07T14:09:44;8.60;99.90
14555;DHT22;7364;50.870;4.722;2023-12-07T14:12:13;8.70;99.90
14555;DHT22;7364;50.870;4.722;2023-12-07T14:14:42;8.70;99.90
14555;DHT22;7364;50.870;4.722;2023-12-07T14:17:09;8.80;99.90
14555;DHT22;7364;50.870;4.722;2023-12-07T14:19:36;8.70;99.90
14555;DHT22;7364;50.870;4.722;2023-12-07T14:22:04;8.80;99.90
14555;DHT22;7364;50.870;4.722;2023-12-07T14:24:31;9.00;99.90
14555;DHT22;7364;50.870;4.722;2023-12-07T14:26:58;9.00;99.90
14555;DHT22;7364;50.870;4.722;2023-12-07T14:29:25;8.90;99.90
14555;DHT22;7364;50.870;4.722;2023-12-07T14:31:54;8.80;99.90
14555;DHT22;7364;50.870;4.722;2023-12-07T14:34:22;8.70;99.90
14555;DHT22;7364;50.870;4.722;2023-12-07T14:36:50;8.60;99.90
14555;DHT22;7364;50.870;4.722;2023-12-07T14:39:17;8.60;99.90
14555;DHT22;7364;50.870;4.722;2023-12-07T14:41:45;8.70;99.90
14555;DHT22;7364;50.870;4.722;2023-12-07T14:44:13;8.60;99.90
14555;DHT22;7364;50.870;4.722;2023-12-07T14:46:42;8.40;99.90
14555;DHT22;7364;50.870;4.722;2023-12-07T14:49:12;8.40;99.90
14555;DHT22;7364;50.870;4.722;2023-12-07T14:51:39;8.40;99.90
14555;DHT22;7364;50.870;4.722;2023-12-07T14:54:07;8.50;99.90
14555;DHT22;7364;50.870;4.722;2023-12-07T14:56:35;8.40;99.90
14555;DHT22;7364;50.870;4.722;2023-12-07T14:59:02;8.10;99.90
14555;DHT22;7364;50.870;4.722;2023-12-07T15:01:30;8.10;99.90
14555;DHT22;7364;50.870;4.722;2023-12-07T15:03:57;8.20;99.90
14555;DHT22;7364;50.870;4.722;2023-12-07T15:06:26;8.30;99.90
14555;DHT22;7364;50.870;4.722;2023-12-07T15:08:54;8.40;99.90
14555;DHT22;7364;50.870;4.722;2023-12-07T15:11:22;8.40;99.90
14555;DHT22;7364;50.870;4.722;2023-12-07T15:13:49;8.40;99.90
14555;DHT22;7364;50.870;4.722;2023-12-07T15:16:17;8.40;99.90
14555;DHT22;7364;50.870;4.722;2023-12-07T15:18:44;8.30;99.90
14555;DHT22;7364;50.870;4.722;2023-12-07T15:21:12;8.10;99.90
14555;DHT22;7364;50.870;4.722;2023-12-07T15:23:41;8.10;99.90
14555;DHT22;7364;50.870;4.722;2023-12-07T15:26:09;8.20;99.90
14555;DHT22;7364;50.870;4.722;2023-12-07T15:28:37;8.20;99.90
14555;DHT22;7364;50.870;4.722;2023-12-07T15:31:05;7.90;99.90
14555;DHT22;7364;50.870;4.722;2023-12-07T15:33:33;7.80;99.90
14555;DHT22;7364;50.870;4.722;2023-12-07T15:36:02;7.80;99.90
14555;DHT22;7364;50.870;4.722;2023-12-07T15:38:29;7.80;99.90
14555;DHT22;7364;50.870;4.722;2023-12-07T15:40:58;7.90;99.90
14555;DHT22;7364;50.870;4.722;2023-12-07T15:43:28;7.90;99.90
14555;DHT22;7364;50.870;4.722;2023-12-07T15:45:56;7.90;99.90
14555;DHT22;7364;50.870;4.722;2023-12-07T15:48:24;7.90;99.90
14555;DHT22;7364;50.870;4.722;2023-12-07T15:50:51;7.70;99.90
14555;DHT22;7364;50.870;4.722;2023-12-07T15:53:19;7.70;99.90
14555;DHT22;7364;50.870;4.722;2023-12-07T15:55:46;7.60;99.90
14555;DHT22;7364;50.870;4.722;2023-12-07T15:58:14;7.60;99.90
14555;DHT22;7364;50.870;4.722;2023-12-07T16:00:43;7.60;99.90
14555;DHT22;7364;50.870;4.722;2023-12-07T16:03:10;7.80;99.90
14555;DHT22;7364;50.870;4.722;2023-12-07T16:05:38;7.70;99.90
14555;DHT22;7364;50.870;4.722;2023-12-07T16:08:05;7.50;99.90